KMCD

Details ICAO KMCD
Name MACKINAC ISLAND
Region United States
Timezone America/Detroit (UTC-4.0)
Plans Departing 13
Arriving 42
Stats Elevation 740 ft / 226 m (AMSL)
Location 45.864935° -84.637344°
Runways 1
Magnetic Variation 7.137° W
Sunrise 2018-05-22 10:00:52 UTC / 2018-05-22 06:00:52 Local
Sunset 2018-05-23 01:12:27 UTC / 2018-05-22 21:12:27 Local
Advertisement - Login to hide

Runways

ID Width Length Bearing (true) Bearing (mag) Surface Threshold Offset Overrun Length
08 75 ft / 23 m 3,492 ft / 1,065 m 75.21° 82.35° Asphalt 0 ft / 0 m 0 ft / 0 m
26 75 ft / 23 m 3,492 ft / 1,065 m 255.22° 262.36° Asphalt 0 ft / 0 m 0 ft / 0 m

Map

Weather


0- 5 10 15 20 25 30 35+ Temperature / ° C

Clouds and Precipitation
Forecast for 2018-05-22 18:00 UTC. Updated 5 hours ago

Ground ~20,000 ft ~40,000 ft Winds

METAR

KMCD 222215Z AUTO 25005KT 10SM CLR 18/07 A2999 RMK AO2 T01760072

TAF

Not found

Frequencies

Recorded 118.27 MHz AWOS 3
Unicom 122.70 MHz CTAF/UNICOM
Warning: Do not use this data for real-world aviation or navigation. No guarantee of current accuracy is given.